createdAt,value
2023-04-01T06:57:07.391Z,11.09
2023-04-01T07:10:53.905Z,11.47
2023-04-01T07:13:46.621Z,11.48
2023-04-01T07:17:35.414Z,11.57
2023-04-01T07:21:57.484Z,11.71
2023-04-01T07:35:25.157Z,11.90
2023-04-01T07:38:30.848Z,11.87
2023-04-01T10:47:39.943Z,11.90
2023-04-01T10:50:36.367Z,11.91
2023-04-01T10:54:18.011Z,12.02
2023-04-01T10:57:59.388Z,12.16
2023-04-01T11:01:42.973Z,12.49
2023-04-01T11:05:24.664Z,12.81
2023-04-01T11:09:13.098Z,12.71
2023-04-01T11:11:39.862Z,12.57
2023-04-01T11:16:51.881Z,12.72
2023-04-01T11:19:26.309Z,12.84
2023-04-01T11:22:17.520Z,13.02
2023-04-01T11:25:05.190Z,13.00
2023-04-01T11:28:00.251Z,13.14
2023-04-01T11:30:49.570Z,12.90
2023-04-01T11:33:44.690Z,12.91
2023-04-01T11:36:36.415Z,13.24
2023-04-01T11:39:37.050Z,13.56
2023-04-01T11:42:49.151Z,14.20
2023-04-01T11:45:25.957Z,14.96
2023-04-01T11:48:35.130Z,15.08
2023-04-01T11:51:34.779Z,15.70
2023-04-01T11:54:43.160Z,15.96
2023-04-01T11:57:55.094Z,16.24
2023-04-01T12:05:16.820Z,15.41
2023-04-01T12:07:55.981Z,14.65
2023-04-01T12:10:30.211Z,14.25
2023-04-01T12:13:16.691Z,13.85
2023-04-01T12:16:06.484Z,13.56
2023-04-01T12:18:47.676Z,13.15
2023-04-01T12:21:34.665Z,12.98
2023-04-01T12:24:19.653Z,13.10
2023-04-01T12:27:18.733Z,13.34
2023-04-01T12:30:28.457Z,14.00
2023-04-01T12:33:17.307Z,14.89
2023-04-01T12:36:09.691Z,15.49
2023-04-01T12:39:28.619Z,15.98
2023-04-01T12:54:12.641Z,17.09
2023-04-01T12:57:24.928Z,17.02
2023-04-01T13:01:20.026Z,16.69
2023-04-01T13:04:10.308Z,16.34
2023-04-01T13:06:42.115Z,15.75
2023-04-01T13:09:54.743Z,15.19
2023-04-01T13:12:31.311Z,15.12
2023-04-01T13:15:06.578Z,15.31
2023-04-01T13:17:46.602Z,15.40
2023-04-01T13:20:40.158Z,15.20
2023-04-01T13:23:25.922Z,15.07
2023-04-01T13:26:22.236Z,14.90
2023-04-01T13:29:21.007Z,14.96
2023-04-01T13:32:04.561Z,14.97
2023-04-01T13:52:07.481Z,14.52
2023-04-01T13:56:08.045Z,14.02
2023-04-01T14:01:09.958Z,13.70
2023-04-01T14:05:14.287Z,13.58
2023-04-01T14:20:06.818Z,13.39
2023-04-01T14:23:00.497Z,13.39
2023-04-01T14:25:55.200Z,13.26
2023-04-01T14:28:40.524Z,13.16
2023-04-01T14:31:41.515Z,13.07
2023-04-01T15:00:32.569Z,12.57
2023-04-01T15:06:35.486Z,12.33
2023-04-01T15:09:22.231Z,12.23
2023-04-01T15:12:04.637Z,12.18
2023-04-01T15:16:13.185Z,11.94
2023-04-01T15:20:13.715Z,11.67
2023-04-01T15:22:52.564Z,11.53
2023-04-01T15:25:29.846Z,11.46
2023-04-01T15:28:07.127Z,11.33
2023-04-01T15:30:52.251Z,11.20
2023-04-01T15:33:51.107Z,11.11
2023-04-01T15:37:30.089Z,11.03
2023-04-01T15:40:22.060Z,11.00
2023-04-01T15:43:06.522Z,10.98
2023-04-01T15:46:09.588Z,10.96
2023-04-01T15:49:03.314Z,10.98
2023-04-01T15:52:25.268Z,11.02
2023-04-01T15:55:47.001Z,11.03
2023-04-01T15:58:41.635Z,11.01
2023-04-01T16:01:36.406Z,10.97
2023-04-01T16:05:13.173Z,10.94
2023-04-01T16:09:00.275Z,10.95
2023-04-01T16:11:52.388Z,10.95
2023-04-01T16:14:49.790Z,10.97
2023-04-01T16:17:32.864Z,10.96
2023-04-01T16:20:29.224Z,10.96
2023-04-01T16:23:04.494Z,10.87
2023-04-01T16:28:32.670Z,10.71
2023-04-01T16:31:13.328Z,10.62
2023-04-01T16:33:51.239Z,10.51
2023-04-01T16:36:44.872Z,10.38
2023-04-01T16:39:31.325Z,10.30
2023-04-01T16:42:43.618Z,10.23
2023-04-01T16:46:13.834Z,10.15
2023-04-01T16:49:13.085Z,10.08
2023-04-01T16:52:05.149Z,10.08
2023-04-01T16:54:51.952Z,10.00
2023-04-01T16:57:49.367Z,9.94
2023-04-01T17:00:23.664Z,9.93
2023-04-01T17:02:59.184Z,9.91
2023-04-01T17:05:36.592Z,9.87
2023-04-01T17:08:18.527Z,9.88
2023-04-01T17:10:56.972Z,9.91
2023-04-01T17:14:06.515Z,9.94
2023-04-01T17:17:02.914Z,9.91
2023-04-01T17:19:43.253Z,9.90
2023-04-01T17:22:45.104Z,9.87
2023-04-01T17:25:37.220Z,9.89
2023-04-01T17:28:11.446Z,9.89
2023-04-01T17:31:07.023Z,9.92
2023-04-01T17:34:14.098Z,9.93
2023-04-01T17:38:07.060Z,9.93
2023-04-01T17:40:39.928Z,9.94
2023-04-01T17:43:30.264Z,9.93
2023-04-01T17:46:04.896Z,9.87
2023-04-01T17:49:06.827Z,9.89
2023-04-01T17:51:46.390Z,9.88
2023-04-01T18:05:24.410Z,9.97
2023-04-01T18:08:13.040Z,9.94
2023-04-01T18:11:19.452Z,9.92
2023-04-01T18:14:15.212Z,9.86
2023-04-01T18:17:14.359Z,9.87
2023-04-01T18:20:03.532Z,9.88
2023-04-01T18:22:50.051Z,9.84
2023-04-01T18:25:18.431Z,9.83
2023-04-01T18:28:31.724Z,9.81
2023-04-01T18:31:03.114Z,9.79
2023-04-01T18:34:02.429Z,9.75
2023-04-01T18:37:04.921Z,9.75
2023-04-01T18:39:48.332Z,9.76
2023-04-01T18:43:23.057Z,9.75
2023-04-01T18:46:06.913Z,9.75
2023-04-01T18:48:52.837Z,9.74
2023-04-01T18:51:37.558Z,9.71
2023-04-01T18:54:41.671Z,9.66
2023-04-01T18:57:16.137Z,9.62
2023-04-01T18:59:55.142Z,9.64
2023-04-01T19:02:33.560Z,9.61
2023-04-01T19:05:32.815Z,9.56
2023-04-01T19:08:33.849Z,9.56
2023-04-01T19:11:05.542Z,9.58
2023-04-01T19:13:39.814Z,9.56
2023-04-01T19:16:44.953Z,9.52
2023-04-01T19:19:38.968Z,9.44
2023-04-01T19:23:09.224Z,9.40
2023-04-01T19:25:48.874Z,9.39
2023-04-01T19:28:51.666Z,9.39
2023-04-01T19:31:40.404Z,9.33
2023-04-01T19:34:46.524Z,9.35
2023-04-01T19:37:28.864Z,9.35
2023-04-01T19:40:03.315Z,9.36
2023-04-01T19:42:58.914Z,9.37
2023-04-01T19:45:56.923Z,9.40
2023-04-01T19:48:49.949Z,9.37
2023-04-01T19:51:32.251Z,9.32
2023-04-01T19:54:22.985Z,9.32
2023-04-01T19:57:07.744Z,9.31
2023-04-01T19:59:42.311Z,9.28
2023-04-01T20:02:10.447Z,9.29
2023-04-01T20:04:44.306Z,9.29
2023-04-01T20:07:26.022Z,9.27
2023-04-01T20:10:16.317Z,9.25
2023-04-01T20:12:57.297Z,9.22
2023-04-01T20:15:36.947Z,9.17
2023-04-01T20:18:19.155Z,9.17
2023-04-01T20:21:01.743Z,9.17
2023-04-01T20:24:47.778Z,9.13
2023-04-01T20:27:23.130Z,9.08
2023-04-01T20:30:12.894Z,9.05
2023-04-01T20:33:14.700Z,9.02
2023-04-01T20:36:07.186Z,8.99
2023-04-01T20:38:48.047Z,8.99
2023-04-01T20:41:27.542Z,8.94
2023-04-01T20:44:15.419Z,8.88
2023-04-01T20:47:02.866Z,8.86
2023-04-01T20:49:40.265Z,8.83
2023-04-01T20:52:14.242Z,8.89
2023-04-01T20:55:10.083Z,8.88
2023-04-01T20:57:45.648Z,8.85
2023-04-01T21:00:42.071Z,8.88
2023-04-01T21:03:39.402Z,8.91
2023-04-01T21:06:36.564Z,8.90
2023-04-01T21:09:19.594Z,8.90
2023-04-01T21:12:11.960Z,8.86
2023-04-01T21:15:28.033Z,8.86
2023-04-01T21:18:18.814Z,8.87
2023-04-01T21:21:12.066Z,8.89
2023-04-01T21:24:01.269Z,8.80
2023-04-01T21:26:56.400Z,8.80
2023-04-01T21:29:52.775Z,8.81
2023-04-01T21:32:39.356Z,8.83
2023-04-01T21:35:45.128Z,8.81
2023-04-01T21:38:54.482Z,8.81
2023-04-01T21:41:48.653Z,8.80
2023-04-01T21:44:31.226Z,8.82
2023-04-01T21:47:18.122Z,8.83
2023-04-01T21:50:17.912Z,8.82
2023-04-01T21:53:20.126Z,8.78
2023-04-01T21:56:26.852Z,8.75
2023-04-01T21:59:28.634Z,8.72
2023-04-01T22:02:15.526Z,8.69
2023-04-01T22:05:11.162Z,8.66
2023-04-01T22:08:13.861Z,8.65
2023-04-01T22:10:50.032Z,8.60
2023-04-01T22:13:30.510Z,8.60
2023-04-01T22:16:22.618Z,8.56
2023-04-01T22:19:01.576Z,8.60
2023-04-01T22:22:10.121Z,8.60
2023-04-01T22:24:52.621Z,8.54
2023-04-01T22:27:53.583Z,8.49
2023-04-01T22:30:25.748Z,8.45
2023-04-01T22:33:01.381Z,8.43
2023-04-01T22:35:29.424Z,8.38
2023-04-01T22:42:25.263Z,8.36
2023-04-01T22:45:01.688Z,8.29
2023-04-01T22:47:41.886Z,8.25
2023-04-01T22:50:22.056Z,8.22
2023-04-01T22:52:59.183Z,8.21
2023-04-01T22:55:34.116Z,8.21
2023-04-01T23:01:50.778Z,8.15
2023-04-01T23:04:24.721Z,8.14
2023-04-01T23:07:01.869Z,8.09
2023-04-01T23:09:36.479Z,8.12
2023-04-01T23:12:12.194Z,8.15
2023-04-01T23:14:56.418Z,8.19
2023-04-01T23:17:36.380Z,8.22
2023-04-01T23:20:42.195Z,8.13
2023-04-01T23:23:32.386Z,8.06
2023-04-01T23:28:52.160Z,7.93
2023-04-01T23:31:36.862Z,7.92
2023-04-01T23:34:21.949Z,7.88
2023-04-01T23:43:16.669Z,7.91
2023-04-01T23:45:45.323Z,7.91
2023-04-01T23:48:17.418Z,7.88
2023-04-01T23:50:46.926Z,7.88
2023-04-01T23:53:24.273Z,7.91
2023-04-01T23:55:53.580Z,7.85
2023-04-01T23:58:45.108Z,7.87
